sensor_id;sensor_type;location;lat;lon;timestamp;temperature;humidity
23083;DHT22;11709;52.420;10.538;2023-03-14T00:02:41;11.80;96.30
23083;DHT22;11709;52.420;10.538;2023-03-14T00:06:44;11.80;98.50
23083;DHT22;11709;52.420;10.538;2023-03-14T00:10:48;11.80;97.60
23083;DHT22;11709;52.420;10.538;2023-03-14T00:14:50;11.80;99.90
23083;DHT22;11709;52.420;10.538;2023-03-14T00:18:52;11.70;99.90
23083;DHT22;11709;52.420;10.538;2023-03-14T00:22:54;11.70;99.90
23083;DHT22;11709;52.420;10.538;2023-03-14T00:26:57;11.70;99.90
23083;DHT22;11709;52.420;10.538;2023-03-14T00:31:02;11.70;99.90
23083;DHT22;11709;52.420;10.538;2023-03-14T00:35:04;11.70;99.90
23083;DHT22;11709;52.420;10.538;2023-03-14T00:39:07;11.60;99.90
23083;DHT22;11709;52.420;10.538;2023-03-14T00:43:09;11.60;99.90
23083;DHT22;11709;52.420;10.538;2023-03-14T00:47:12;11.60;99.90
23083;DHT22;11709;52.420;10.538;2023-03-14T00:51:14;11.60;99.90
23083;DHT22;11709;52.420;10.538;2023-03-14T00:55:17;11.60;99.90
23083;DHT22;11709;52.420;10.538;2023-03-14T00:59:20;11.70;99.90
23083;DHT22;11709;52.420;10.538;2023-03-14T01:03:22;11.70;99.90
23083;DHT22;11709;52.420;10.538;2023-03-14T01:07:24;11.70;99.90
23083;DHT22;11709;52.420;10.538;2023-03-14T01:11:34;11.70;99.90
23083;DHT22;11709;52.420;10.538;2023-03-14T01:15:35;11.70;99.90
23083;DHT22;11709;52.420;10.538;2023-03-14T01:19:37;11.70;99.90
23083;DHT22;11709;52.420;10.538;2023-03-14T01:23:39;11.70;99.90
23083;DHT22;11709;52.420;10.538;2023-03-14T01:27:41;11.70;99.90
23083;DHT22;11709;52.420;10.538;2023-03-14T01:31:43;11.70;99.90
23083;DHT22;11709;52.420;10.538;2023-03-14T01:35:45;11.80;99.90
23083;DHT22;11709;52.420;10.538;2023-03-14T01:39:47;11.80;99.90
23083;DHT22;11709;52.420;10.538;2023-03-14T01:43:49;11.70;99.90
23083;DHT22;11709;52.420;10.538;2023-03-14T01:47:51;11.70;99.90
23083;DHT22;11709;52.420;10.538;2023-03-14T01:55:57;11.70;99.90
23083;DHT22;11709;52.420;10.538;2023-03-14T02:00:09;11.70;99.90
23083;DHT22;11709;52.420;10.538;2023-03-14T02:04:14;11.70;99.90
23083;DHT22;11709;52.420;10.538;2023-03-14T02:08:20;11.70;99.50
23083;DHT22;11709;52.420;10.538;2023-03-14T02:12:23;11.70;96.10
23083;DHT22;11709;52.420;10.538;2023-03-14T02:16:25;11.80;92.90
23083;DHT22;11709;52.420;10.538;2023-03-14T02:29:00;11.80;79.40
23083;DHT22;11709;52.420;10.538;2023-03-14T02:33:05;11.70;69.80
23083;DHT22;11709;52.420;10.538;2023-03-14T02:37:09;11.70;71.00
23083;DHT22;11709;52.420;10.538;2023-03-14T02:41:12;11.70;65.60
23083;DHT22;11709;52.420;10.538;2023-03-14T02:49:18;11.60;50.70
23083;DHT22;11709;52.420;10.538;2023-03-14T02:53:21;11.60;52.00
23083;DHT22;11709;52.420;10.538;2023-03-14T02:57:23;11.60;45.70
23083;DHT22;11709;52.420;10.538;2023-03-14T03:01:26;11.50;45.00
23083;DHT22;11709;52.420;10.538;2023-03-14T03:05:28;11.50;42.60
23083;DHT22;11709;52.420;10.538;2023-03-14T03:09:29;11.50;41.80
23083;DHT22;11709;52.420;10.538;2023-03-14T03:13:31;11.40;39.80
23083;DHT22;11709;52.420;10.538;2023-03-14T03:17:33;11.40;40.90
23083;DHT22;11709;52.420;10.538;2023-03-14T03:21:35;11.40;41.10
23083;DHT22;11709;52.420;10.538;2023-03-14T03:25:37;11.30;43.30
23083;DHT22;11709;52.420;10.538;2023-03-14T03:29:39;11.30;44.10
23083;DHT22;11709;52.420;10.538;2023-03-14T03:33:41;11.20;43.40
23083;DHT22;11709;52.420;10.538;2023-03-14T03:37:43;11.20;42.50
23083;DHT22;11709;52.420;10.538;2023-03-14T03:41:44;11.10;44.60
23083;DHT22;11709;52.420;10.538;2023-03-14T03:45:46;11.10;44.40
23083;DHT22;11709;52.420;10.538;2023-03-14T03:49:48;11.00;45.80
23083;DHT22;11709;52.420;10.538;2023-03-14T03:53:50;11.00;45.50
23083;DHT22;11709;52.420;10.538;2023-03-14T03:57:52;11.00;45.90
23083;DHT22;11709;52.420;10.538;2023-03-14T04:01:53;11.00;45.30
23083;DHT22;11709;52.420;10.538;2023-03-14T04:05:59;10.90;43.80
23083;DHT22;11709;52.420;10.538;2023-03-14T04:10:02;10.90;45.00
23083;DHT22;11709;52.420;10.538;2023-03-14T04:14:04;10.80;45.30
23083;DHT22;11709;52.420;10.538;2023-03-14T04:18:06;10.80;46.20
23083;DHT22;11709;52.420;10.538;2023-03-14T04:22:08;10.70;45.30
23083;DHT22;11709;52.420;10.538;2023-03-14T04:26:10;10.70;48.50
23083;DHT22;11709;52.420;10.538;2023-03-14T04:30:12;10.60;46.90
23083;DHT22;11709;52.420;10.538;2023-03-14T04:34:15;10.60;45.20
23083;DHT22;11709;52.420;10.538;2023-03-14T04:38:17;10.50;45.70
23083;DHT22;11709;52.420;10.538;2023-03-14T04:42:18;10.50;49.00
23083;DHT22;11709;52.420;10.538;2023-03-14T04:46:21;10.60;44.00
23083;DHT22;11709;52.420;10.538;2023-03-14T04:50:23;10.70;39.20
23083;DHT22;11709;52.420;10.538;2023-03-14T04:54:24;10.80;33.60
23083;DHT22;11709;52.420;10.538;2023-03-14T04:58:26;10.80;40.30
23083;DHT22;11709;52.420;10.538;2023-03-14T05:02:28;10.80;25.10
23083;DHT22;11709;52.420;10.538;2023-03-14T05:06:30;10.80;16.30
23083;DHT22;11709;52.420;10.538;2023-03-14T05:10:32;10.70;19.70
23083;DHT22;11709;52.420;10.538;2023-03-14T05:14:34;10.70;13.80
23083;DHT22;11709;52.420;10.538;2023-03-14T05:18:36;10.60;17.30
23083;DHT22;11709;52.420;10.538;2023-03-14T05:22:38;10.50;21.80
23083;DHT22;11709;52.420;10.538;2023-03-14T05:26:40;10.40;51.00
23083;DHT22;11709;52.420;10.538;2023-03-14T05:30:42;10.30;77.80
23083;DHT22;11709;52.420;10.538;2023-03-14T05:34:44;10.20;88.40
23083;DHT22;11709;52.420;10.538;2023-03-14T05:38:46;10.20;94.80
23083;DHT22;11709;52.420;10.538;2023-03-14T05:42:47;10.10;95.40
23083;DHT22;11709;52.420;10.538;2023-03-14T05:46:49;10.10;91.10
23083;DHT22;11709;52.420;10.538;2023-03-14T05:50:55;10.10;87.30
23083;DHT22;11709;52.420;10.538;2023-03-14T05:54:57;10.10;83.80
23083;DHT22;11709;52.420;10.538;2023-03-14T05:58:59;10.00;82.80
23083;DHT22;11709;52.420;10.538;2023-03-14T06:03:03;10.10;79.80
23083;DHT22;11709;52.420;10.538;2023-03-14T06:07:05;10.00;79.90
23083;DHT22;11709;52.420;10.538;2023-03-14T06:11:07;10.00;80.70
23083;DHT22;11709;52.420;10.538;2023-03-14T06:15:10;9.90;88.00
23083;DHT22;11709;52.420;10.538;2023-03-14T06:19:12;9.90;88.80
23083;DHT22;11709;52.420;10.538;2023-03-14T06:23:14;9.90;83.60
23083;DHT22;11709;52.420;10.538;2023-03-14T06:27:16;9.90;82.30
23083;DHT22;11709;52.420;10.538;2023-03-14T06:31:18;10.00;71.80
23083;DHT22;11709;52.420;10.538;2023-03-14T06:35:20;10.00;68.60
23083;DHT22;11709;52.420;10.538;2023-03-14T06:39:22;10.10;66.20
23083;DHT22;11709;52.420;10.538;2023-03-14T06:43:24;10.20;61.60
23083;DHT22;11709;52.420;10.538;2023-03-14T06:47:26;10.30;58.60
23083;DHT22;11709;52.420;10.538;2023-03-14T06:51:28;10.40;52.60
23083;DHT22;11709;52.420;10.538;2023-03-14T06:55:30;10.60;50.60
23083;DHT22;11709;52.420;10.538;2023-03-14T06:59:34;10.80;30.80
23083;DHT22;11709;52.420;10.538;2023-03-14T07:03:36;10.90;22.80
23083;DHT22;11709;52.420;10.538;2023-03-14T07:07:38;11.00;6.20
23083;DHT22;11709;52.420;10.538;2023-03-14T07:11:40;11.20;4.10
23083;DHT22;11709;52.420;10.538;2023-03-14T07:15:42;11.20;1.00
23083;DHT22;11709;52.420;10.538;2023-03-14T07:19:44;11.30;1.00
23083;DHT22;11709;52.420;10.538;2023-03-14T07:23:47;11.20;1.00
23083;DHT22;11709;52.420;10.538;2023-03-14T07:27:49;11.30;1.00
23083;DHT22;11709;52.420;10.538;2023-03-14T07:31:53;11.40;1.00
23083;DHT22;11709;52.420;10.538;2023-03-14T07:35:56;11.40;1.00
23083;DHT22;11709;52.420;10.538;2023-03-14T07:39:58;11.50;1.00
23083;DHT22;11709;52.420;10.538;2023-03-14T07:44:00;11.50;1.00
23083;DHT22;11709;52.420;10.538;2023-03-14T07:48:02;11.50;1.00
23083;DHT22;11709;52.420;10.538;2023-03-14T07:52:05;11.50;1.00
23083;DHT22;11709;52.420;10.538;2023-03-14T07:56:09;11.70;1.00
23083;DHT22;11709;52.420;10.538;2023-03-14T08:00:10;11.70;1.00
23083;DHT22;11709;52.420;10.538;2023-03-14T08:04:12;11.60;1.00
23083;DHT22;11709;52.420;10.538;2023-03-14T08:08:14;11.70;1.00
23083;DHT22;11709;52.420;10.538;2023-03-14T08:12:16;11.70;1.00
23083;DHT22;11709;52.420;10.538;2023-03-14T08:16:19;11.80;1.00
23083;DHT22;11709;52.420;10.538;2023-03-14T08:20:21;11.90;1.00
23083;DHT22;11709;52.420;10.538;2023-03-14T08:24:23;12.10;1.00
23083;DHT22;11709;52.420;10.538;2023-03-14T08:28:26;12.10;1.00
23083;DHT22;11709;52.420;10.538;2023-03-14T08:32:32;12.20;1.00
23083;DHT22;11709;52.420;10.538;2023-03-14T08:36:34;12.10;1.00
23083;DHT22;11709;52.420;10.538;2023-03-14T08:40:36;12.00;1.00
23083;DHT22;11709;52.420;10.538;2023-03-14T08:44:38;11.80;1.00
23083;DHT22;11709;52.420;10.538;2023-03-14T08:48:40;11.80;1.00
23083;DHT22;11709;52.420;10.538;2023-03-14T08:52:42;11.80;1.00
23083;DHT22;11709;52.420;10.538;2023-03-14T08:56:44;11.80;1.00
23083;DHT22;11709;52.420;10.538;2023-03-14T09:00:46;11.70;1.00
23083;DHT22;11709;52.420;10.538;2023-03-14T09:04:53;11.60;1.00
23083;DHT22;11709;52.420;10.538;2023-03-14T09:08:52;11.60;21.40
23083;DHT22;11709;52.420;10.538;2023-03-14T09:12:54;11.50;90.40
23083;DHT22;11709;52.420;10.538;2023-03-14T09:16:57;11.50;95.10
23083;DHT22;11709;52.420;10.538;2023-03-14T09:21:00;11.50;99.90
23083;DHT22;11709;52.420;10.538;2023-03-14T09:25:03;11.50;99.90
23083;DHT22;11709;52.420;10.538;2023-03-14T09:29:05;11.60;99.90
23083;DHT22;11709;52.420;10.538;2023-03-14T09:33:07;11.70;99.90
23083;DHT22;11709;52.420;10.538;2023-03-14T09:37:10;11.90;94.10
23083;DHT22;11709;52.420;10.538;2023-03-14T09:41:16;12.00;85.00
23083;DHT22;11709;52.420;10.538;2023-03-14T09:45:25;12.10;66.00
23083;DHT22;11709;52.420;10.538;2023-03-14T09:49:38;12.20;55.90
23083;DHT22;11709;52.420;10.538;2023-03-14T09:53:44;12.20;99.90
23083;DHT22;11709;52.420;10.538;2023-03-14T09:57:47;12.20;99.90
23083;DHT22;11709;52.420;10.538;2023-03-14T10:01:50;12.30;99.90
23083;DHT22;11709;52.420;10.538;2023-03-14T10:05:52;12.60;99.90
23083;DHT22;11709;52.420;10.538;2023-03-14T10:09:54;13.00;99.90
23083;DHT22;11709;52.420;10.538;2023-03-14T10:14:07;13.40;99.90
23083;DHT22;11709;52.420;10.538;2023-03-14T10:18:12;13.60;99.90
23083;DHT22;11709;52.420;10.538;2023-03-14T10:22:14;13.70;99.90
23083;DHT22;11709;52.420;10.538;2023-03-14T10:26:23;13.40;99.90
23083;DHT22;11709;52.420;10.538;2023-03-14T10:30:40;13.00;99.90
23083;DHT22;11709;52.420;10.538;2023-03-14T10:34:34;12.60;1.00
23083;DHT22;11709;52.420;10.538;2023-03-14T10:38:37;12.20;79.50
23083;DHT22;11709;52.420;10.538;2023-03-14T10:42:41;11.80;99.90
23083;DHT22;11709;52.420;10.538;2023-03-14T10:46:45;11.70;99.90
23083;DHT22;11709;52.420;10.538;2023-03-14T10:51:10;11.50;99.90
23083;DHT22;11709;52.420;10.538;2023-03-14T10:55:01;11.60;99.90
23083;DHT22;11709;52.420;10.538;2023-03-14T10:59:07;12.40;96.70
23083;DHT22;11709;52.420;10.538;2023-03-14T11:03:12;13.20;22.80
23083;DHT22;11709;52.420;10.538;2023-03-14T11:07:35;13.50;1.00
23083;DHT22;11709;52.420;10.538;2023-03-14T11:11:39;13.40;1.00
23083;DHT22;11709;52.420;10.538;2023-03-14T11:16:05;13.30;1.00
23083;DHT22;11709;52.420;10.538;2023-03-14T11:24:56;12.90;1.00
23083;DHT22;11709;52.420;10.538;2023-03-14T11:29:08;12.70;1.00
23083;DHT22;11709;52.420;10.538;2023-03-14T11:33:17;12.60;1.00
23083;DHT22;11709;52.420;10.538;2023-03-14T11:41:41;12.40;1.00
23083;DHT22;11709;52.420;10.538;2023-03-14T11:45:45;12.40;1.00
23083;DHT22;11709;52.420;10.538;2023-03-14T11:49:56;12.80;1.00
23083;DHT22;11709;52.420;10.538;2023-03-14T11:58:51;13.30;1.00
23083;DHT22;11709;52.420;10.538;2023-03-14T12:02:19;13.10;1.00
23083;DHT22;11709;52.420;10.538;2023-03-14T12:06:25;12.90;1.00
23083;DHT22;11709;52.420;10.538;2023-03-14T12:10:24;12.60;21.80
23083;DHT22;11709;52.420;10.538;2023-03-14T12:14:34;11.70;12.90
23083;DHT22;11709;52.420;10.538;2023-03-14T12:18:37;10.70;27.90
23083;DHT22;11709;52.420;10.538;2023-03-14T12:26:58;9.20;99.90
23083;DHT22;11709;52.420;10.538;2023-03-14T12:43:35;8.20;99.90
23083;DHT22;11709;52.420;10.538;2023-03-14T12:51:41;8.00;99.90
23083;DHT22;11709;52.420;10.538;2023-03-14T12:56:01;7.60;99.90
23083;DHT22;11709;52.420;10.538;2023-03-14T13:00:16;7.50;99.90
23083;DHT22;11709;52.420;10.538;2023-03-14T13:04:17;7.40;99.90
23083;DHT22;11709;52.420;10.538;2023-03-14T13:08:41;7.10;99.90
23083;DHT22;11709;52.420;10.538;2023-03-14T13:12:26;6.90;99.90
23083;DHT22;11709;52.420;10.538;2023-03-14T13:16:33;6.80;99.90
23083;DHT22;11709;52.420;10.538;2023-03-14T13:20:48;6.60;99.90
23083;DHT22;11709;52.420;10.538;2023-03-14T13:24:45;6.40;99.90
23083;DHT22;11709;52.420;10.538;2023-03-14T13:28:47;6.40;99.90
23083;DHT22;11709;52.420;10.538;2023-03-14T13:32:49;6.30;99.90
23083;DHT22;11709;52.420;10.538;2023-03-14T13:36:52;6.20;99.90
23083;DHT22;11709;52.420;10.538;2023-03-14T13:40:55;6.10;99.90
23083;DHT22;11709;52.420;10.538;2023-03-14T13:44:58;6.00;99.90
23083;DHT22;11709;52.420;10.538;2023-03-14T13:49:05;5.90;99.90
23083;DHT22;11709;52.420;10.538;2023-03-14T13:53:09;5.90;97.10
23083;DHT22;11709;52.420;10.538;2023-03-14T13:57:10;5.90;92.50
23083;DHT22;11709;52.420;10.538;2023-03-14T14:01:16;5.90;92.60
23083;DHT22;11709;52.420;10.538;2023-03-14T14:05:19;6.00;90.10
23083;DHT22;11709;52.420;10.538;2023-03-14T14:09:23;6.00;82.40
23083;DHT22;11709;52.420;10.538;2023-03-14T14:13:24;6.10;90.20
23083;DHT22;11709;52.420;10.538;2023-03-14T14:17:28;6.20;92.80
23083;DHT22;11709;52.420;10.538;2023-03-14T14:21:29;6.00;76.60
23083;DHT22;11709;52.420;10.538;2023-03-14T14:25:32;6.00;99.90
23083;DHT22;11709;52.420;10.538;2023-03-14T14:29:34;5.90;84.20
23083;DHT22;11709;52.420;10.538;2023-03-14T14:33:45;5.80;95.70
23083;DHT22;11709;52.420;10.538;2023-03-14T14:37:43;5.80;91.50
23083;DHT22;11709;52.420;10.538;2023-03-14T14:41:47;5.90;98.00
23083;DHT22;11709;52.420;10.538;2023-03-14T14:45:52;5.90;97.30
23083;DHT22;11709;52.420;10.538;2023-03-14T14:49:55;5.90;94.20
23083;DHT22;11709;52.420;10.538;2023-03-14T14:54:09;5.80;91.50
23083;DHT22;11709;52.420;10.538;2023-03-14T14:58:12;5.80;82.60
23083;DHT22;11709;52.420;10.538;2023-03-14T15:02:23;5.90;78.50
23083;DHT22;11709;52.420;10.538;2023-03-14T15:06:17;5.80;79.30
23083;DHT22;11709;52.420;10.538;2023-03-14T15:10:20;5.80;66.10
23083;DHT22;11709;52.420;10.538;2023-03-14T15:14:23;5.80;60.20
23083;DHT22;11709;52.420;10.538;2023-03-14T15:18:25;5.90;48.50
23083;DHT22;11709;52.420;10.538;2023-03-14T15:22:28;6.00;36.20
23083;DHT22;11709;52.420;10.538;2023-03-14T15:26:30;6.10;33.10
23083;DHT22;11709;52.420;10.538;2023-03-14T15:30:32;6.10;34.60
23083;DHT22;11709;52.420;10.538;2023-03-14T15:34:34;6.10;23.00
23083;DHT22;11709;52.420;10.538;2023-03-14T15:38:35;6.20;23.40
23083;DHT22;11709;52.420;10.538;2023-03-14T15:42:37;6.10;25.60
23083;DHT22;11709;52.420;10.538;2023-03-14T15:46:39;6.10;29.10
23083;DHT22;11709;52.420;10.538;2023-03-14T15:50:41;6.10;25.90
23083;DHT22;11709;52.420;10.538;2023-03-14T15:54:43;6.10;30.40
23083;DHT22;11709;52.420;10.538;2023-03-14T15:58:44;6.00;38.60
23083;DHT22;11709;52.420;10.538;2023-03-14T16:02:49;5.90;31.00
23083;DHT22;11709;52.420;10.538;2023-03-14T16:06:51;5.90;29.00
23083;DHT22;11709;52.420;10.538;2023-03-14T16:10:53;5.90;33.00
23083;DHT22;11709;52.420;10.538;2023-03-14T16:14:56;5.90;44.60
23083;DHT22;11709;52.420;10.538;2023-03-14T16:18:57;6.10;40.10
23083;DHT22;11709;52.420;10.538;2023-03-14T16:22:59;6.20;33.10
23083;DHT22;11709;52.420;10.538;2023-03-14T16:27:01;6.20;38.70
23083;DHT22;11709;52.420;10.538;2023-03-14T16:31:04;6.20;31.40
23083;DHT22;11709;52.420;10.538;2023-03-14T16:35:06;6.10;29.00
23083;DHT22;11709;52.420;10.538;2023-03-14T16:39:08;6.00;26.00
23083;DHT22;11709;52.420;10.538;2023-03-14T16:43:10;6.00;25.30
23083;DHT22;11709;52.420;10.538;2023-03-14T16:47:11;5.90;26.90
23083;DHT22;11709;52.420;10.538;2023-03-14T16:51:13;5.90;30.20
23083;DHT22;11709;52.420;10.538;2023-03-14T16:55:16;5.80;28.80
23083;DHT22;11709;52.420;10.538;2023-03-14T16:59:18;5.80;25.10
23083;DHT22;11709;52.420;10.538;2023-03-14T17:03:20;5.70;25.30
23083;DHT22;11709;52.420;10.538;2023-03-14T17:07:22;5.80;28.60
23083;DHT22;11709;52.420;10.538;2023-03-14T17:11:24;5.70;22.20
23083;DHT22;11709;52.420;10.538;2023-03-14T17:15:26;5.70;20.10
23083;DHT22;11709;52.420;10.538;2023-03-14T17:19:28;5.60;22.60
23083;DHT22;11709;52.420;10.538;2023-03-14T17:23:31;5.50;13.30
23083;DHT22;11709;52.420;10.538;2023-03-14T17:27:33;5.50;12.40
23083;DHT22;11709;52.420;10.538;2023-03-14T17:31:36;5.40;10.90
23083;DHT22;11709;52.420;10.538;2023-03-14T17:35:37;5.30;1.80
23083;DHT22;11709;52.420;10.538;2023-03-14T17:39:39;5.30;1.00
23083;DHT22;11709;52.420;10.538;2023-03-14T17:43:41;5.20;1.00
23083;DHT22;11709;52.420;10.538;2023-03-14T17:47:43;5.10;1.00
23083;DHT22;11709;52.420;10.538;2023-03-14T17:51:45;5.10;1.00
23083;DHT22;11709;52.420;10.538;2023-03-14T17:55:47;5.00;1.00
23083;DHT22;11709;52.420;10.538;2023-03-14T17:59:49;5.00;1.00
23083;DHT22;11709;52.420;10.538;2023-03-14T18:03:53;5.00;1.00
23083;DHT22;11709;52.420;10.538;2023-03-14T18:07:55;4.90;1.00
23083;DHT22;11709;52.420;10.538;2023-03-14T18:11:58;4.80;11.70
23083;DHT22;11709;52.420;10.538;2023-03-14T18:15:59;4.80;9.10
23083;DHT22;11709;52.420;10.538;2023-03-14T18:20:01;4.70;12.00
23083;DHT22;11709;52.420;10.538;2023-03-14T18:24:05;4.70;10.60
23083;DHT22;11709;52.420;10.538;2023-03-14T18:28:06;4.60;13.80
23083;DHT22;11709;52.420;10.538;2023-03-14T18:32:08;4.50;16.80
23083;DHT22;11709;52.420;10.538;2023-03-14T18:36:11;4.50;18.20
23083;DHT22;11709;52.420;10.538;2023-03-14T18:40:13;4.50;17.40
23083;DHT22;11709;52.420;10.538;2023-03-14T18:44:17;4.50;17.60
23083;DHT22;11709;52.420;10.538;2023-03-14T18:48:19;4.50;12.40
23083;DHT22;11709;52.420;10.538;2023-03-14T18:52:20;4.50;12.50
23083;DHT22;11709;52.420;10.538;2023-03-14T18:56:22;4.50;14.30
23083;DHT22;11709;52.420;10.538;2023-03-14T19:00:24;4.40;15.00
23083;DHT22;11709;52.420;10.538;2023-03-14T19:04:27;4.40;15.50
23083;DHT22;11709;52.420;10.538;2023-03-14T19:08:30;4.30;17.90
23083;DHT22;11709;52.420;10.538;2023-03-14T19:12:34;4.30;18.80
23083;DHT22;11709;52.420;10.538;2023-03-14T19:16:36;4.20;18.10
23083;DHT22;11709;52.420;10.538;2023-03-14T19:20:37;4.20;19.30
23083;DHT22;11709;52.420;10.538;2023-03-14T19:24:39;4.20;18.40
23083;DHT22;11709;52.420;10.538;2023-03-14T19:28:41;4.20;15.60
23083;DHT22;11709;52.420;10.538;2023-03-14T19:32:43;4.20;14.70
23083;DHT22;11709;52.420;10.538;2023-03-14T19:36:45;4.20;15.30
23083;DHT22;11709;52.420;10.538;2023-03-14T19:40:47;4.20;13.40
23083;DHT22;11709;52.420;10.538;2023-03-14T19:44:50;4.20;14.60
23083;DHT22;11709;52.420;10.538;2023-03-14T19:48:53;4.20;14.60
23083;DHT22;11709;52.420;10.538;2023-03-14T19:52:55;4.20;14.40
23083;DHT22;11709;52.420;10.538;2023-03-14T19:56:58;4.30;15.00
23083;DHT22;11709;52.420;10.538;2023-03-14T20:01:01;4.20;14.30
23083;DHT22;11709;52.420;10.538;2023-03-14T20:05:03;4.20;15.30
23083;DHT22;11709;52.420;10.538;2023-03-14T20:09:05;4.20;14.10
23083;DHT22;11709;52.420;10.538;2023-03-14T20:13:08;4.20;14.00
23083;DHT22;11709;52.420;10.538;2023-03-14T20:17:09;4.10;16.10
23083;DHT22;11709;52.420;10.538;2023-03-14T20:21:11;4.00;17.30
23083;DHT22;11709;52.420;10.538;2023-03-14T20:25:15;4.00;18.30
23083;DHT22;11709;52.420;10.538;2023-03-14T20:29:21;3.90;17.30
23083;DHT22;11709;52.420;10.538;2023-03-14T20:33:23;3.90;17.20
23083;DHT22;11709;52.420;10.538;2023-03-14T20:37:25;3.80;14.00
23083;DHT22;11709;52.420;10.538;2023-03-14T20:41:26;3.70;13.80
23083;DHT22;11709;52.420;10.538;2023-03-14T20:45:28;3.70;11.20
23083;DHT22;11709;52.420;10.538;2023-03-14T20:49:30;3.60;8.60
23083;DHT22;11709;52.420;10.538;2023-03-14T20:53:32;3.60;7.50
23083;DHT22;11709;52.420;10.538;2023-03-14T20:57:34;3.50;7.10
23083;DHT22;11709;52.420;10.538;2023-03-14T21:01:35;3.50;7.00
23083;DHT22;11709;52.420;10.538;2023-03-14T21:05:39;3.40;6.10
23083;DHT22;11709;52.420;10.538;2023-03-14T21:09:40;3.40;2.50
23083;DHT22;11709;52.420;10.538;2023-03-14T21:13:42;3.30;1.00
23083;DHT22;11709;52.420;10.538;2023-03-14T21:17:44;3.30;1.00
23083;DHT22;11709;52.420;10.538;2023-03-14T21:21:46;3.30;1.00
23083;DHT22;11709;52.420;10.538;2023-03-14T21:25:48;3.30;1.00
23083;DHT22;11709;52.420;10.538;2023-03-14T21:29:50;3.20;1.00
23083;DHT22;11709;52.420;10.538;2023-03-14T21:33:52;3.20;1.00
23083;DHT22;11709;52.420;10.538;2023-03-14T21:37:54;3.20;1.00
23083;DHT22;11709;52.420;10.538;2023-03-14T21:41:56;3.10;1.00
23083;DHT22;11709;52.420;10.538;2023-03-14T21:45:58;3.10;1.00
23083;DHT22;11709;52.420;10.538;2023-03-14T21:50:00;3.10;1.00
23083;DHT22;11709;52.420;10.538;2023-03-14T21:54:01;3.10;1.00
23083;DHT22;11709;52.420;10.538;2023-03-14T21:58:05;3.10;1.00
23083;DHT22;11709;52.420;10.538;2023-03-14T22:02:10;3.00;1.00
23083;DHT22;11709;52.420;10.538;2023-03-14T22:06:11;3.00;1.00
23083;DHT22;11709;52.420;10.538;2023-03-14T22:10:13;3.00;1.00
23083;DHT22;11709;52.420;10.538;2023-03-14T22:14:15;2.90;1.00
23083;DHT22;11709;52.420;10.538;2023-03-14T22:18:17;2.90;1.00
23083;DHT22;11709;52.420;10.538;2023-03-14T22:22:19;2.90;1.00
23083;DHT22;11709;52.420;10.538;2023-03-14T22:26:21;2.80;1.00
23083;DHT22;11709;52.420;10.538;2023-03-14T22:30:23;2.80;1.00
23083;DHT22;11709;52.420;10.538;2023-03-14T22:34:24;2.70;1.00
23083;DHT22;11709;52.420;10.538;2023-03-14T22:38:28;2.70;1.00
23083;DHT22;11709;52.420;10.538;2023-03-14T22:42:30;2.70;1.00
23083;DHT22;11709;52.420;10.538;2023-03-14T22:46:31;2.60;1.00
23083;DHT22;11709;52.420;10.538;2023-03-14T22:50:33;2.60;1.00
23083;DHT22;11709;52.420;10.538;2023-03-14T22:54:37;2.50;1.00
23083;DHT22;11709;52.420;10.538;2023-03-14T22:58:38;2.50;1.00
23083;DHT22;11709;52.420;10.538;2023-03-14T23:02:40;2.50;1.00
23083;DHT22;11709;52.420;10.538;2023-03-14T23:06:42;2.50;1.00
23083;DHT22;11709;52.420;10.538;2023-03-14T23:10:44;2.50;1.00
23083;DHT22;11709;52.420;10.538;2023-03-14T23:14:46;2.50;1.00
23083;DHT22;11709;52.420;10.538;2023-03-14T23:18:48;2.40;1.00
23083;DHT22;11709;52.420;10.538;2023-03-14T23:22:50;2.40;1.00
23083;DHT22;11709;52.420;10.538;2023-03-14T23:26:52;2.40;1.00
23083;DHT22;11709;52.420;10.538;2023-03-14T23:30:54;2.40;1.00
23083;DHT22;11709;52.420;10.538;2023-03-14T23:34:56;2.40;1.00
23083;DHT22;11709;52.420;10.538;2023-03-14T23:38:58;2.40;1.00
23083;DHT22;11709;52.420;10.538;2023-03-14T23:43:00;2.40;1.00
23083;DHT22;11709;52.420;10.538;2023-03-14T23:47:01;2.40;1.00
23083;DHT22;11709;52.420;10.538;2023-03-14T23:51:04;2.40;1.00
23083;DHT22;11709;52.420;10.538;2023-03-14T23:55:07;2.40;1.00
23083;DHT22;11709;52.420;10.538;2023-03-14T23:59:08;2.30;1.00
